Time;durP1;ratioP1;P1;durP2;ratioP2;P2;SDS_P1;SDS_P2;PMS_P1;PMS_P2;Temp;Humidity;BMP_temperature;BMP_pressure;BME280_temperature;BME280_humidity;BME280_pressure;Samples;Min_cycle;Max_cycle;Signal;HPM_P1;HPM_P2
2021/10/04 00:01:58;;;;;;;7.85;4.82;;;12.00;99.90;;;;;;5048524;28;20204;-74
2021/10/04 00:04:24;;;;;;;7.82;4.60;;;12.00;99.90;;;;;;5048445;28;20202;-74
2021/10/04 00:06:50;;;;;;;6.10;4.25;;;12.10;99.90;;;;;;5048366;28;20198;-73
2021/10/04 00:09:15;;;;;;;8.35;4.57;;;12.20;99.90;;;;;;5048373;28;20188;-73
2021/10/04 00:11:41;;;;;;;9.15;4.15;;;12.20;99.90;;;;;;5048285;28;20189;-73
2021/10/04 00:14:08;;;;;;;9.38;4.75;;;12.20;99.90;;;;;;5046889;28;20169;-73
2021/10/04 00:16:36;;;;;;;10.43;4.43;;;12.10;99.90;;;;;;5048188;28;20173;-74
2021/10/04 00:19:04;;;;;;;8.20;4.57;;;12.10;99.90;;;;;;5046680;28;20169;-74
2021/10/04 00:21:29;;;;;;;8.30;4.80;;;12.10;99.90;;;;;;5048072;28;20197;-74
2021/10/04 00:23:56;;;;;;;7.72;4.55;;;12.20;99.90;;;;;;5048139;28;20169;-73
2021/10/04 00:26:22;;;;;;;11.40;4.65;;;12.20;99.90;;;;;;5048068;28;20174;-73
2021/10/04 00:28:48;;;;;;;8.65;4.65;;;12.10;99.90;;;;;;5047932;28;20212;-74
2021/10/04 00:31:14;;;;;;;6.13;4.32;;;12.10;99.90;;;;;;5046162;28;20227;-74
2021/10/04 00:33:40;;;;;;;6.55;3.90;;;12.00;99.90;;;;;;5048063;28;20149;-74
2021/10/04 00:36:06;;;;;;;9.68;4.38;;;12.00;99.90;;;;;;5048024;28;20164;-74
2021/10/04 00:38:32;;;;;;;9.15;4.40;;;11.90;99.90;;;;;;5046431;28;20197;-74
2021/10/04 00:40:58;;;;;;;8.93;4.93;;;11.90;99.90;;;;;;5048993;28;20201;-75
2021/10/04 00:43:24;;;;;;;8.07;4.03;;;11.90;99.90;;;;;;5049472;28;20172;-74
2021/10/04 00:45:50;;;;;;;9.25;4.35;;;11.80;99.90;;;;;;5049132;28;20245;-74
2021/10/04 00:48:17;;;;;;;11.18;3.65;;;11.70;99.90;;;;;;5047760;28;20215;-74
2021/10/04 00:50:43;;;;;;;10.68;4.40;;;11.80;99.90;;;;;;5047743;28;20162;-74
2021/10/04 00:53:10;;;;;;;9.48;4.95;;;11.80;99.90;;;;;;5062048;28;20235;-74
2021/10/04 00:55:37;;;;;;;8.02;4.03;;;11.90;99.90;;;;;;5067620;28;20156;-74
2021/10/04 00:58:05;;;;;;;9.57;4.03;;;11.90;99.90;;;;;;5067566;28;20216;-74
2021/10/04 01:00:32;;;;;;;10.45;4.07;;;11.80;99.90;;;;;;5067717;28;20157;-75
2021/10/04 01:02:58;;;;;;;9.23;4.28;;;11.80;99.90;;;;;;5067278;28;20176;-74
2021/10/04 01:05:24;;;;;;;8.88;4.43;;;11.80;99.90;;;;;;5067372;28;20160;-74
2021/10/04 01:07:50;;;;;;;7.45;3.90;;;11.80;99.90;;;;;;5067421;28;20191;-75
2021/10/04 01:10:17;;;;;;;7.40;4.05;;;11.80;99.90;;;;;;5067544;28;20182;-75
2021/10/04 01:12:46;;;;;;;8.80;3.85;;;11.80;99.90;;;;;;5067267;28;20267;-74
2021/10/04 01:15:13;;;;;;;5.70;4.05;;;11.80;99.90;;;;;;5067461;28;20160;-74
2021/10/04 01:17:40;;;;;;;8.82;4.45;;;11.80;99.90;;;;;;5067472;28;20183;-74
2021/10/04 01:20:26;;;;;;;7.93;4.03;;;11.80;99.90;;;;;;5067530;28;20164;-74
2021/10/04 01:22:54;;;;;;;5.38;4.22;;;11.80;99.90;;;;;;5067360;28;20191;-75
2021/10/04 01:25:21;;;;;;;12.05;4.63;;;11.80;99.90;;;;;;5067413;28;20157;-75
2021/10/04 01:27:48;;;;;;;11.10;4.55;;;11.90;99.90;;;;;;5067303;28;20191;-74
2021/10/04 01:30:17;;;;;;;9.02;3.95;;;11.80;99.90;;;;;;5049355;28;20163;-74
2021/10/04 01:32:44;;;;;;;12.30;4.00;;;11.80;99.90;;;;;;5067103;28;20561;-74
2021/10/04 01:35:11;;;;;;;7.78;4.43;;;11.90;99.90;;;;;;5067401;28;20165;-75
2021/10/04 01:37:37;;;;;;;10.75;4.63;;;12.00;99.90;;;;;;5067354;28;20160;-74
2021/10/04 01:40:05;;;;;;;10.40;4.18;;;12.00;99.90;;;;;;5067333;28;20169;-75
2021/10/04 01:42:31;;;;;;;9.70;4.95;;;11.90;99.90;;;;;;5067255;28;20188;-75
2021/10/04 01:44:57;;;;;;;8.38;3.97;;;11.90;99.90;;;;;;5067427;28;20161;-75
2021/10/04 01:47:23;;;;;;;7.90;3.78;;;11.80;99.90;;;;;;5067119;28;20187;-75
2021/10/04 01:49:49;;;;;;;13.85;4.22;;;11.60;99.90;;;;;;5067186;28;20172;-74
2021/10/04 01:52:15;;;;;;;10.43;4.03;;;11.60;99.90;;;;;;5045716;28;20239;-74
2021/10/04 01:54:42;;;;;;;9.20;4.38;;;11.60;99.90;;;;;;5047259;28;20196;-74
2021/10/04 01:57:08;;;;;;;8.35;3.83;;;11.60;99.90;;;;;;5047246;28;20158;-74
2021/10/04 01:59:34;;;;;;;10.32;4.85;;;11.50;99.90;;;;;;5045890;28;20201;-75
2021/10/04 02:02:01;;;;;;;9.70;4.35;;;11.40;99.90;;;;;;5047142;28;20203;-75
2021/10/04 02:04:27;;;;;;;11.15;4.97;;;11.50;99.90;;;;;;5047168;28;20587;-74
2021/10/04 02:06:53;;;;;;;7.78;4.40;;;11.50;99.90;;;;;;5047221;28;20162;-74
2021/10/04 02:09:20;;;;;;;9.60;4.85;;;11.50;99.90;;;;;;5047090;28;20215;-74
2021/10/04 02:11:47;;;;;;;9.73;4.32;;;11.50;99.90;;;;;;5045513;28;20204;-74
2021/10/04 02:14:14;;;;;;;9.57;4.60;;;11.60;99.90;;;;;;5047099;28;20177;-75
2021/10/04 02:16:41;;;;;;;12.15;4.70;;;11.70;99.90;;;;;;5047830;28;20577;-74
2021/10/04 02:19:08;;;;;;;10.23;4.70;;;11.70;99.90;;;;;;5050518;28;20162;-74
2021/10/04 02:21:35;;;;;;;7.65;4.63;;;11.60;99.90;;;;;;5050481;28;20189;-74
2021/10/04 02:24:01;;;;;;;13.13;4.32;;;11.60;99.90;;;;;;5050465;28;20233;-74
2021/10/04 02:26:27;;;;;;;11.23;4.63;;;11.60;99.90;;;;;;5050509;28;20157;-74
2021/10/04 02:28:53;;;;;;;10.80;4.63;;;11.50;99.90;;;;;;5050176;28;20185;-74
2021/10/04 02:31:19;;;;;;;12.23;4.78;;;11.40;99.90;;;;;;5050374;28;20189;-74
2021/10/04 02:33:45;;;;;;;11.38;4.60;;;11.40;99.90;;;;;;5050412;28;20158;-74
2021/10/04 02:36:11;;;;;;;9.07;4.40;;;11.40;99.90;;;;;;5048886;28;20292;-75
2021/10/04 02:38:37;;;;;;;8.57;4.13;;;11.30;99.90;;;;;;5050133;28;20169;-75
2021/10/04 02:41:03;;;;;;;7.82;4.22;;;11.30;99.90;;;;;;5050134;28;20196;-75
2021/10/04 02:43:29;;;;;;;8.00;4.57;;;11.30;99.90;;;;;;5049096;28;20192;-75
2021/10/04 02:45:55;;;;;;;6.63;3.90;;;11.30;99.90;;;;;;5050324;28;20161;-74
2021/10/04 02:48:22;;;;;;;7.07;4.30;;;11.30;99.90;;;;;;5049941;28;20211;-75
2021/10/04 02:50:48;;;;;;;8.32;4.13;;;11.20;99.90;;;;;;5049922;28;20253;-74
2021/10/04 02:53:14;;;;;;;14.27;4.47;;;11.30;99.90;;;;;;5064989;28;20216;-75
2021/10/04 02:55:40;;;;;;;9.25;4.72;;;11.30;99.90;;;;;;5070053;28;20666;-74
2021/10/04 02:58:06;;;;;;;6.88;4.40;;;11.40;99.90;;;;;;5069879;28;20157;-75
2021/10/04 03:00:35;;;;;;;9.75;4.80;;;11.30;99.90;;;;;;5069693;28;20163;-74
2021/10/04 03:03:03;;;;;;;6.88;4.28;;;11.40;99.90;;;;;;5070059;28;20161;-75
2021/10/04 03:05:29;;;;;;;11.50;4.43;;;11.50;99.90;;;;;;5069721;28;20215;-74
2021/10/04 03:07:57;;;;;;;4.78;3.65;;;11.50;99.90;;;;;;5052099;28;20212;-75
2021/10/04 03:10:23;;;;;;;9.15;4.20;;;11.40;99.90;;;;;;5069632;28;20172;-74
2021/10/04 03:12:49;;;;;;;10.00;4.55;;;11.50;99.90;;;;;;5069428;28;20219;-74
2021/10/04 03:15:15;;;;;;;8.98;4.00;;;11.60;99.90;;;;;;5069553;28;20157;-74
2021/10/04 03:17:41;;;;;;;9.00;4.70;;;11.60;99.90;;;;;;5069510;28;20191;-74
2021/10/04 03:20:07;;;;;;;10.35;4.28;;;11.60;99.90;;;;;;5069282;28;20172;-74
2021/10/04 03:22:34;;;;;;;8.68;4.40;;;11.70;99.90;;;;;;5069247;28;20193;-74
2021/10/04 03:24:59;;;;;;;6.85;4.05;;;11.80;99.90;;;;;;5069795;28;20226;-75
2021/10/04 03:27:25;;;;;;;8.60;4.20;;;11.80;99.90;;;;;;5069387;28;20192;-74
2021/10/04 03:29:51;;;;;;;10.40;4.75;;;11.80;99.90;;;;;;5051715;28;20161;-73
2021/10/04 03:32:17;;;;;;;8.85;4.18;;;11.80;99.90;;;;;;5069805;28;20196;-75
2021/10/04 03:34:43;;;;;;;6.22;3.40;;;11.70;99.90;;;;;;5051443;28;20371;-75
2021/10/04 03:37:09;;;;;;;7.40;4.43;;;11.60;99.90;;;;;;5070090;28;20157;-75
2021/10/04 03:39:35;;;;;;;9.23;4.10;;;11.40;99.90;;;;;;5070151;28;20161;-75
2021/10/04 03:42:01;;;;;;;10.65;4.63;;;11.40;99.90;;;;;;5069134;28;20623;-74
2021/10/04 03:44:27;;;;;;;8.90;4.30;;;11.30;99.90;;;;;;5069310;28;20606;-75
2021/10/04 03:46:53;;;;;;;8.32;4.50;;;11.30;99.90;;;;;;5068993;28;20161;-75
2021/10/04 03:49:19;;;;;;;8.70;4.45;;;11.30;99.90;;;;;;5069023;28;20196;-74
2021/10/04 03:51:44;;;;;;;6.78;3.67;;;11.20;99.90;;;;;;5068738;28;20907;-74
2021/10/04 03:54:10;;;;;;;6.38;3.47;;;11.10;99.90;;;;;;5069841;28;20168;-74
2021/10/04 03:56:36;;;;;;;8.82;3.90;;;11.20;99.90;;;;;;5070150;28;20157;-74
2021/10/04 03:59:02;;;;;;;7.63;3.85;;;11.10;99.90;;;;;;5052547;28;20183;-74
2021/10/04 04:01:28;;;;;;;7.15;3.85;;;11.10;99.90;;;;;;5052139;28;20309;-75
2021/10/04 04:03:54;;;;;;;12.90;4.65;;;11.00;99.90;;;;;;5070170;28;20165;-75
2021/10/04 04:06:20;;;;;;;8.98;4.22;;;10.90;99.90;;;;;;5069853;28;20156;-74
2021/10/04 04:08:47;;;;;;;7.57;4.22;;;11.10;99.90;;;;;;5069785;28;20526;-75
2021/10/04 04:11:13;;;;;;;12.68;4.25;;;11.10;99.90;;;;;;5069648;28;20225;-74
2021/10/04 04:13:39;;;;;;;9.00;4.50;;;11.10;99.90;;;;;;5069915;28;20153;-75
2021/10/04 04:16:05;;;;;;;11.77;4.80;;;11.20;99.90;;;;;;5069424;28;20172;-73
2021/10/04 04:18:32;;;;;;;10.60;4.43;;;11.10;99.90;;;;;;5069291;28;20176;-75
2021/10/04 04:21:00;;;;;;;7.38;3.65;;;11.10;99.90;;;;;;5069489;28;20233;-75
2021/10/04 04:23:26;;;;;;;11.63;4.30;;;11.10;99.90;;;;;;5068183;28;20183;-75
2021/10/04 04:25:52;;;;;;;7.72;3.95;;;11.20;99.90;;;;;;5068063;28;20218;-75
2021/10/04 04:28:19;;;;;;;6.18;4.05;;;11.20;99.90;;;;;;5049843;28;20192;-75
2021/10/04 04:30:45;;;;;;;6.43;4.40;;;11.10;99.90;;;;;;5067926;28;20149;-75
2021/10/04 04:33:11;;;;;;;6.63;3.58;;;11.10;99.90;;;;;;5067960;28;20175;-75
2021/10/04 04:35:37;;;;;;;5.43;3.53;;;11.20;99.90;;;;;;5067953;28;20161;-75
2021/10/04 04:38:03;;;;;;;8.77;4.30;;;11.20;99.90;;;;;;5067253;28;20181;-73
2021/10/04 04:40:29;;;;;;;7.53;4.32;;;11.10;99.90;;;;;;5067686;28;20160;-75
2021/10/04 04:42:55;;;;;;;8.68;3.85;;;11.10;99.90;;;;;;5067755;28;20207;-74
2021/10/04 04:45:21;;;;;;;7.15;3.75;;;11.00;99.90;;;;;;5049619;28;20256;-73
2021/10/04 04:47:48;;;;;;;6.80;4.05;;;10.90;99.90;;;;;;5067507;28;20196;-75
2021/10/04 04:50:17;;;;;;;6.63;3.83;;;10.80;99.90;;;;;;5049548;28;20167;-75
2021/10/04 04:52:43;;;;;;;12.18;4.35;;;10.70;99.90;;;;;;5067450;28;20231;-74
2021/10/04 04:55:10;;;;;;;5.72;3.38;;;10.70;99.90;;;;;;5067810;28;20165;-74
2021/10/04 04:57:36;;;;;;;6.13;3.88;;;10.60;99.90;;;;;;5067584;28;20228;-74
2021/10/04 05:00:05;;;;;;;6.88;4.15;;;10.60;99.90;;;;;;5067723;28;20248;-74
2021/10/04 05:02:36;;;;;;;7.65;4.30;;;10.70;99.90;;;;;;5067415;28;20294;-75
2021/10/04 05:05:06;;;;;;;7.25;4.03;;;10.60;99.90;;;;;;5067604;28;20681;-74
2021/10/04 05:07:32;;;;;;;9.30;4.53;;;10.60;99.90;;;;;;5049265;28;20192;-74
2021/10/04 05:09:58;;;;;;;8.43;4.40;;;10.60;99.90;;;;;;5067093;28;20157;-74
2021/10/04 05:12:24;;;;;;;9.40;5.00;;;10.60;99.90;;;;;;5049216;28;20199;-74
2021/10/04 05:14:50;;;;;;;9.07;4.25;;;10.70;99.90;;;;;;5067360;28;20583;-74
2021/10/04 05:17:17;;;;;;;14.25;4.35;;;10.70;99.90;;;;;;5067185;28;20161;-74
2021/10/04 05:19:42;;;;;;;7.35;4.50;;;10.80;99.90;;;;;;5067310;28;20199;-75
2021/10/04 05:22:08;;;;;;;8.38;4.38;;;10.70;99.90;;;;;;5067083;28;20192;-75
2021/10/04 05:24:34;;;;;;;8.88;5.15;;;10.70;99.90;;;;;;5067450;28;20161;-75
2021/10/04 05:27:00;;;;;;;7.93;5.20;;;10.70;99.90;;;;;;5067061;28;20216;-74
2021/10/04 05:29:26;;;;;;;7.93;3.72;;;10.70;99.90;;;;;;5067110;28;20216;-74
2021/10/04 05:31:53;;;;;;;9.50;4.93;;;10.80;99.90;;;;;;5067145;28;20196;-72
2021/10/04 05:34:20;;;;;;;6.80;4.35;;;10.90;99.90;;;;;;5067104;28;20169;-73
2021/10/04 05:36:46;;;;;;;6.85;4.30;;;10.90;99.90;;;;;;5066962;28;20189;-74
2021/10/04 05:39:12;;;;;;;11.75;4.53;;;11.00;99.90;;;;;;5067154;28;20165;-73
2021/10/04 05:41:38;;;;;;;6.40;3.92;;;11.00;99.90;;;;;;5066882;28;20705;-73
2021/10/04 05:44:05;;;;;;;6.65;4.32;;;10.90;99.90;;;;;;5067125;28;20172;-74
2021/10/04 05:46:31;;;;;;;8.05;4.75;;;10.90;99.90;;;;;;5066890;28;20168;-73
2021/10/04 05:48:56;;;;;;;13.25;4.20;;;10.90;99.90;;;;;;5066658;28;20189;-73
2021/10/04 05:51:22;;;;;;;9.00;4.55;;;11.00;99.90;;;;;;5070441;28;20192;-73
2021/10/04 05:53:48;;;;;;;7.50;4.47;;;11.10;99.90;;;;;;5070701;28;20220;-74
2021/10/04 05:56:14;;;;;;;5.93;4.18;;;11.10;99.90;;;;;;5070628;28;20184;-74
2021/10/04 05:58:40;;;;;;;10.65;4.45;;;11.20;99.90;;;;;;5070815;28;20544;-73
2021/10/04 06:01:06;;;;;;;8.35;5.60;;;11.30;99.90;;;;;;5070761;28;20218;-74
2021/10/04 06:03:32;;;;;;;10.88;5.40;;;11.40;99.90;;;;;;5070744;28;20157;-73
2021/10/04 06:05:58;;;;;;;13.55;5.55;;;11.80;99.90;;;;;;5070896;28;20545;-74
2021/10/04 06:08:24;;;;;;;12.38;5.38;;;12.00;99.90;;;;;;5052824;28;20204;-74
2021/10/04 06:10:50;;;;;;;14.10;5.35;;;12.10;99.90;;;;;;5070391;28;20632;-73
2021/10/04 06:13:16;;;;;;;14.60;5.53;;;12.30;99.90;;;;;;5070619;28;20601;-74
2021/10/04 06:15:43;;;;;;;10.55;5.22;;;12.30;99.90;;;;;;5070262;28;20164;-73
2021/10/04 06:18:12;;;;;;;9.88;4.93;;;12.40;99.90;;;;;;5071420;28;20239;-74
2021/10/04 06:20:41;;;;;;;10.00;5.63;;;12.50;99.90;;;;;;5071576;28;20244;-74
2021/10/04 06:23:09;;;;;;;16.33;5.50;;;12.70;99.90;;;;;;5071110;28;20228;-73
2021/10/04 06:25:35;;;;;;;15.63;5.95;;;12.80;99.90;;;;;;5052263;28;20193;-73
2021/10/04 06:28:02;;;;;;;13.43;5.65;;;12.90;99.90;;;;;;5052223;28;20696;-76
2021/10/04 06:30:29;;;;;;;17.23;5.65;;;13.00;99.90;;;;;;5070263;28;20241;-74
2021/10/04 06:32:55;;;;;;;11.68;5.40;;;13.20;99.90;;;;;;5070126;28;20252;-75
2021/10/04 06:35:21;;;;;;;12.00;4.45;;;13.40;99.90;;;;;;5070322;28;20153;-74
2021/10/04 06:37:48;;;;;;;13.15;5.05;;;13.50;99.90;;;;;;5070159;28;20188;-74
2021/10/04 06:40:16;;;;;;;13.13;5.65;;;13.60;99.90;;;;;;5052005;28;20172;-74
2021/10/04 06:42:44;;;;;;;13.50;5.22;;;13.70;99.90;;;;;;5052145;28;20223;-74
2021/10/04 06:45:10;;;;;;;15.15;4.80;;;13.80;99.90;;;;;;5069884;28;20153;-73
2021/10/04 06:47:37;;;;;;;12.27;5.18;;;14.00;99.90;;;;;;5069992;28;20211;-74
2021/10/04 06:50:04;;;;;;;10.05;4.93;;;14.00;99.90;;;;;;5069976;28;20211;-73
2021/10/04 06:52:30;;;;;;;7.68;4.93;;;14.10;99.90;;;;;;5069589;28;20220;-73
2021/10/04 06:54:56;;;;;;;13.07;5.35;;;14.20;99.90;;;;;;5069813;28;20180;-75
2021/10/04 06:57:23;;;;;;;10.63;4.68;;;14.40;99.90;;;;;;5066586;28;20196;-74
2021/10/04 06:59:49;;;;;;;9.80;5.75;;;14.80;99.90;;;;;;5060891;28;20293;-74
2021/10/04 07:02:15;;;;;;;10.48;5.00;;;15.00;99.90;;;;;;5058936;28;20227;-75
2021/10/04 07:04:41;;;;;;;11.23;4.90;;;15.10;99.90;;;;;;5031926;28;20189;-74
2021/10/04 07:07:07;;;;;;;15.25;4.75;;;15.40;99.90;;;;;;5063901;28;20173;-74
2021/10/04 07:09:33;;;;;;;16.33;5.55;;;15.70;99.90;;;;;;5069644;28;20152;-75
2021/10/04 07:12:00;;;;;;;12.82;4.25;;;15.90;99.90;;;;;;5069397;28;20184;-75
2021/10/04 07:14:26;;;;;;;8.52;4.60;;;16.00;99.90;;;;;;5064891;28;20165;-75
2021/10/04 07:16:52;;;;;;;7.60;4.85;;;16.40;99.90;;;;;;5031238;28;20174;-75
2021/10/04 07:19:18;;;;;;;14.40;4.40;;;16.70;99.90;;;;;;5031447;28;20584;-75
2021/10/04 07:21:45;;;;;;;10.40;4.60;;;17.10;99.90;;;;;;5049260;28;20200;-75
2021/10/04 07:24:11;;;;;;;10.95;4.95;;;17.30;99.90;;;;;;5049355;28;20181;-74
2021/10/04 07:26:37;;;;;;;9.43;4.30;;;17.70;99.90;;;;;;5048938;28;20201;-73
2021/10/04 07:29:04;;;;;;;11.00;3.83;;;18.40;99.90;;;;;;5049033;28;20189;-74
2021/10/04 07:31:30;;;;;;;9.48;3.72;;;18.60;99.90;;;;;;5053758;28;20210;-74
2021/10/04 07:33:56;;;;;;;9.43;3.65;;;19.10;99.90;;;;;;5069182;28;20188;-73
2021/10/04 07:36:22;;;;;;;8.05;4.13;;;19.60;99.90;;;;;;5069068;28;20210;-74
2021/10/04 07:38:47;;;;;;;7.88;3.80;;;19.70;99.90;;;;;;5069010;28;20192;-73
2021/10/04 07:41:13;;;;;;;5.25;3.53;;;20.00;99.90;;;;;;5068952;28;20283;-74
2021/10/04 07:43:39;;;;;;;5.60;3.30;;;20.80;99.90;;;;;;5050829;28;20172;-74
2021/10/04 07:46:07;;;;;;;5.95;3.33;;;21.10;99.90;;;;;;5068909;28;20163;-75
2021/10/04 07:48:35;;;;;;;5.22;3.53;;;21.10;99.90;;;;;;5068777;28;20194;-74
2021/10/04 07:51:02;;;;;;;5.53;3.45;;;22.50;99.90;;;;;;5068965;28;20245;-73
2021/10/04 07:53:28;;;;;;;8.32;3.90;;;23.50;99.90;;;;;;5068670;28;20338;-75
2021/10/04 07:55:54;;;;;;;8.30;3.65;;;24.00;99.90;;;;;;5050466;28;20184;-74
2021/10/04 07:58:20;;;;;;;12.77;3.75;;;23.60;99.90;;;;;;5068538;28;20184;-74
2021/10/04 08:00:46;;;;;;;13.48;3.42;;;23.30;99.90;;;;;;5068754;28;20176;-75
2021/10/04 08:03:12;;;;;;;4.43;3.17;;;24.40;99.90;;;;;;5068575;28;20163;-74
2021/10/04 08:05:38;;;;;;;8.55;4.30;;;25.10;99.90;;;;;;5068344;28;20262;-74
2021/10/04 08:08:04;;;;;;;7.55;2.65;;;25.10;99.90;;;;;;5068404;28;20192;-74
2021/10/04 08:10:31;;;;;;;5.95;3.03;;;25.50;99.90;;;;;;5050416;28;20168;-75
2021/10/04 08:12:59;;;;;;;4.80;2.63;;;26.00;99.90;;;;;;5068112;28;20217;-74
2021/10/04 08:15:26;;;;;;;4.03;2.85;;;26.00;99.90;;;;;;5050259;28;20175;-73
2021/10/04 08:17:52;;;;;;;6.50;2.40;;;25.40;99.90;;;;;;5068095;28;20164;-73
2021/10/04 08:20:17;;;;;;;5.20;2.78;;;24.70;99.90;;;;;;5050406;28;20176;-74
2021/10/04 08:22:43;;;;;;;5.05;2.55;;;25.40;99.90;;;;;;5068110;28;20192;-73
2021/10/04 08:25:11;;;;;;;7.05;2.67;;;25.90;99.90;;;;;;5068357;28;20523;-74
2021/10/04 08:27:38;;;;;;;3.88;2.15;;;25.20;99.90;;;;;;5050013;28;20931;-72
2021/10/04 08:30:05;;;;;;;7.75;2.60;;;24.70;99.90;;;;;;5050010;28;20236;-74
2021/10/04 08:32:30;;;;;;;5.35;2.42;;;24.30;99.90;;;;;;5049812;28;20192;-72
2021/10/04 08:34:56;;;;;;;3.22;2.25;;;25.00;99.90;;;;;;5067862;28;20183;-72
2021/10/04 08:37:22;;;;;;;5.57;2.20;;;25.20;99.90;;;;;;5067859;28;20167;-72
2021/10/04 08:39:48;;;;;;;3.60;2.20;;;25.70;99.90;;;;;;5049830;28;20234;-74
2021/10/04 08:42:14;;;;;;;5.63;2.85;;;25.00;99.90;;;;;;5067554;28;20208;-73
2021/10/04 08:44:41;;;;;;;5.43;2.47;;;24.50;99.90;;;;;;5067634;28;20220;-73
2021/10/04 08:47:07;;;;;;;3.97;2.38;;;25.30;99.90;;;;;;5067715;28;20156;-73
2021/10/04 08:49:34;;;;;;;6.05;2.40;;;25.90;99.90;;;;;;5067919;28;20157;-73
2021/10/04 08:52:01;;;;;;;5.03;2.67;;;25.40;99.90;;;;;;5067662;28;20211;-74
2021/10/04 08:54:29;;;;;;;4.13;3.13;;;25.40;99.90;;;;;;5067666;28;20152;-74
2021/10/04 08:56:57;;;;;;;5.75;2.65;;;26.10;99.90;;;;;;5050517;28;20212;-74
2021/10/04 08:59:24;;;;;;;5.30;2.60;;;26.00;99.90;;;;;;5068636;28;20215;-74
2021/10/04 09:01:50;;;;;;;5.22;2.92;;;26.40;99.90;;;;;;5068673;28;20195;-74
2021/10/04 09:04:21;;;;;;;6.68;2.92;;;26.30;99.90;;;;;;5067799;28;20160;-73
2021/10/04 09:06:47;;;;;;;12.65;3.47;;;25.60;99.90;;;;;;5067466;28;20155;-72
2021/10/04 09:09:15;;;;;;;5.85;2.97;;;25.70;99.90;;;;;;5067423;28;20238;-73
2021/10/04 09:11:44;;;;;;;7.35;2.90;;;25.20;99.90;;;;;;5067223;28;20198;-74
2021/10/04 09:14:17;;;;;;;3.60;2.40;;;26.10;99.90;;;;;;5067481;28;20312;-74
2021/10/04 09:17:02;;;;;;;7.35;2.42;;;26.70;99.90;;;;;;5067568;28;20216;-75
2021/10/04 09:19:34;;;;;;;5.63;2.42;;;27.10;99.90;;;;;;5062087;28;20262;-72
2021/10/04 09:22:21;;;;;;;4.38;2.88;;;27.40;99.90;;;;;;5066953;28;20195;-73
2021/10/04 09:24:49;;;;;;;3.72;2.28;;;26.20;99.90;;;;;;5050720;28;20186;-74
2021/10/04 09:27:36;;;;;;;6.18;2.47;;;26.00;99.90;;;;;;5053370;28;20176;-74
2021/10/04 09:30:15;;;;;;;3.45;2.15;;;26.30;99.90;;;;;;5071623;28;20190;-74
2021/10/04 09:32:45;;;;;;;4.65;2.10;;;26.20;99.90;;;;;;5071042;28;20504;-74
2021/10/04 09:35:16;;;;;;;3.92;2.22;;;25.60;99.90;;;;;;5070910;28;20164;-72
2021/10/04 09:37:44;;;;;;;5.45;2.42;;;25.30;99.90;;;;;;5071201;28;20248;-74
2021/10/04 09:40:33;;;;;;;3.78;2.00;;;26.00;99.90;;;;;;5071335;28;20188;-72
2021/10/04 09:43:03;;;;;;;4.35;2.40;;;25.50;99.90;;;;;;5071174;28;20214;-72
2021/10/04 09:45:30;;;;;;;3.35;2.00;;;25.20;99.90;;;;;;5070850;28;20220;-72
2021/10/04 09:47:56;;;;;;;5.03;2.55;;;25.00;99.90;;;;;;5052899;28;20226;-73
2021/10/04 09:50:30;;;;;;;4.90;2.28;;;25.40;99.90;;;;;;5071179;28;20195;-73
2021/10/04 09:53:00;;;;;;;3.42;2.08;;;25.30;99.90;;;;;;5070984;28;20224;-75
2021/10/04 09:55:37;;;;;;;3.45;2.17;;;26.00;99.90;;;;;;5070994;28;20160;-73
2021/10/04 09:58:15;;;;;;;5.68;1.95;;;26.20;99.90;;;;;;5071057;28;20172;-73
2021/10/04 10:00:44;;;;;;;3.55;1.88;;;26.70;99.90;;;;;;5070801;28;20160;-73
2021/10/04 10:03:12;;;;;;;2.55;2.03;;;27.00;99.90;;;;;;5071220;28;20168;-73
2021/10/04 10:05:46;;;;;;;4.70;2.00;;;26.50;99.90;;;;;;5071040;28;20228;-73
2021/10/04 10:08:12;;;;;;;3.45;2.15;;;26.50;99.90;;;;;;5071213;28;20348;-73
2021/10/04 10:10:40;;;;;;;4.38;2.08;;;26.80;99.90;;;;;;5070321;28;20164;-72
2021/10/04 10:13:08;;;;;;;3.13;2.03;;;27.80;99.90;;;;;;5070545;28;20192;-73
2021/10/04 10:15:35;;;;;;;3.42;2.15;;;28.50;99.90;;;;;;5069444;28;20198;-73
2021/10/04 10:18:08;;;;;;;5.18;2.88;;;29.30;99.90;;;;;;5070489;28;20164;-74
2021/10/04 10:20:35;;;;;;;3.90;2.45;;;29.60;99.90;;;;;;5070781;28;20164;-73
2021/10/04 10:23:01;;;;;;;2.00;1.77;;;28.90;99.90;;;;;;5053086;28;20257;-71
2021/10/04 10:25:31;;;;;;;2.17;1.60;;;29.40;99.90;;;;;;5052225;28;20180;-74
2021/10/04 10:27:57;;;;;;;5.03;2.50;;;30.00;99.90;;;;;;5070234;28;20191;-73
2021/10/04 10:30:25;;;;;;;3.05;2.00;;;29.50;99.80;;;;;;5070515;28;20269;-73
2021/10/04 10:32:53;;;;;;;4.43;1.90;;;27.80;99.90;;;;;;5051902;28;20195;-73
2021/10/04 10:35:47;;;;;;;6.35;2.30;;;28.20;99.90;;;;;;5069502;28;20184;-74
2021/10/04 10:38:13;;;;;;;5.05;1.90;;;28.70;99.90;;;;;;5069065;28;20211;-73
2021/10/04 10:40:39;;;;;;;4.10;2.17;;;29.00;99.90;;;;;;5070163;28;20156;-74
2021/10/04 10:43:09;;;;;;;5.70;2.08;;;29.60;99.90;;;;;;5069930;28;20153;-74
2021/10/04 10:45:47;;;;;;;3.08;2.00;;;30.50;98.80;;;;;;5069827;28;20247;-73
2021/10/04 10:48:15;;;;;;;4.10;1.80;;;30.20;98.70;;;;;;5069624;28;20228;-74
2021/10/04 10:50:48;;;;;;;4.03;2.55;;;29.20;99.90;;;;;;5056219;28;20653;-73
2021/10/04 10:53:20;;;;;;;3.67;1.95;;;29.80;99.90;;;;;;5068702;28;20251;-72
2021/10/04 10:55:54;;;;;;;4.70;1.80;;;29.50;99.90;;;;;;5069610;28;20156;-72
2021/10/04 10:58:30;;;;;;;4.20;1.65;;;30.10;99.90;;;;;;5068900;28;20210;-72
2021/10/04 11:01:16;;;;;;;3.90;1.80;;;30.20;98.20;;;;;;5068649;28;20199;-72
2021/10/04 11:03:48;;;;;;;3.72;2.60;;;29.20;99.30;;;;;;5069666;28;20184;-73
2021/10/04 11:06:14;;;;;;;4.32;2.17;;;29.50;99.90;;;;;;5069587;28;20168;-73
2021/10/04 11:08:43;;;;;;;2.08;1.58;;;30.60;99.80;;;;;;5069451;28;20188;-73
2021/10/04 11:11:10;;;;;;;3.30;1.92;;;31.20;98.60;;;;;;5069421;28;20184;-73
2021/10/04 11:13:39;;;;;;;4.50;1.75;;;31.80;98.60;;;;;;5069223;28;20482;-73
2021/10/04 11:16:04;;;;;;;1.92;1.60;;;32.50;97.70;;;;;;5069651;28;20159;-77
2021/10/04 11:18:38;;;;;;;8.98;1.70;;;32.40;96.60;;;;;;5069458;28;20176;-72
2021/10/04 11:21:06;;;;;;;2.60;1.55;;;32.50;96.60;;;;;;5068047;28;20312;-71
2021/10/04 11:23:32;;;;;;;6.18;2.17;;;32.70;96.10;;;;;;5051205;28;20247;-71
2021/10/04 11:25:58;;;;;;;2.22;1.63;;;31.90;97.20;;;;;;5070018;28;20157;-71
2021/10/04 11:28:27;;;;;;;1.80;1.30;;;31.30;96.60;;;;;;5069929;28;20267;-73
2021/10/04 11:31:24;;;;;;;2.88;1.30;;;30.30;97.70;;;;;;5069599;28;20161;-73
2021/10/04 11:33:59;;;;;;;1.63;1.30;;;30.70;97.50;;;;;;5052944;28;20222;-73
2021/10/04 11:36:29;;;;;;;2.05;0.65;;;31.20;97.00;;;;;;5050989;28;20172;-73
2021/10/04 11:38:56;;;;;;;0.93;0.70;;;31.90;95.40;;;;;;5051271;28;20180;-72
2021/10/04 11:41:24;;;;;;;0.77;0.70;;;31.70;95.40;;;;;;5050851;28;20305;-72
2021/10/04 11:43:53;;;;;;;1.10;0.75;;;31.50;95.40;;;;;;5068810;28;20164;-72
2021/10/04 11:46:22;;;;;;;0.85;0.60;;;32.20;96.30;;;;;;5068762;28;20239;-72
2021/10/04 11:48:48;;;;;;;0.77;0.60;;;31.70;95.50;;;;;;5068404;28;20180;-72
2021/10/04 11:51:27;;;;;;;0.77;0.52;;;31.40;96.20;;;;;;5050855;28;20198;-71
2021/10/04 11:53:54;;;;;;;0.95;0.68;;;32.40;96.50;;;;;;5068517;28;20164;-72
2021/10/04 11:56:22;;;;;;;3.25;0.65;;;33.30;94.70;;;;;;5068824;28;20152;-72
2021/10/04 11:58:56;;;;;;;1.27;0.70;;;33.60;94.40;;;;;;5068738;28;20191;-71
2021/10/04 12:01:40;;;;;;;2.05;0.80;;;33.10;94.90;;;;;;5050824;28;20195;-72
2021/10/04 12:04:14;;;;;;;0.55;0.55;;;32.30;95.60;;;;;;5068450;28;20259;-72
2021/10/04 12:06:44;;;;;;;0.52;0.50;;;31.90;95.40;;;;;;5068622;28;20552;-72
2021/10/04 12:09:21;;;;;;;2.25;0.68;;;32.30;95.20;;;;;;5068141;28;20184;-72
2021/10/04 12:11:50;;;;;;;1.85;0.68;;;31.30;96.30;;;;;;5067938;28;20237;-72
2021/10/04 12:14:18;;;;;;;2.35;0.75;;;29.20;98.10;;;;;;5067989;28;20214;-72
2021/10/04 12:16:44;;;;;;;0.65;0.63;;;27.80;98.90;;;;;;5067610;28;20183;-71
2021/10/04 12:19:10;;;;;;;0.60;0.60;;;27.10;99.90;;;;;;5068242;28;20187;-71
2021/10/04 12:21:37;;;;;;;1.38;0.88;;;26.50;99.90;;;;;;5065795;28;20210;-70
2021/10/04 12:24:31;;;;;;;0.75;0.55;;;26.20;99.90;;;;;;5066158;28;20180;-72
2021/10/04 12:27:05;;;;;;;0.65;0.63;;;26.00;99.90;;;;;;5063323;28;20184;-72
2021/10/04 12:29:42;;;;;;;0.80;0.70;;;26.10;99.90;;;;;;5066104;28;20618;-72
2021/10/04 12:32:38;;;;;;;2.03;0.57;;;26.20;99.90;;;;;;5066591;28;20202;-72
2021/10/04 12:35:17;;;;;;;0.98;0.50;;;26.10;99.90;;;;;;5048219;28;20188;-73
2021/10/04 12:37:46;;;;;;;1.38;0.77;;;26.30;99.90;;;;;;5048091;28;20157;-72
2021/10/04 12:40:22;;;;;;;1.40;0.60;;;26.20;99.90;;;;;;5047854;28;20191;-72
2021/10/04 12:42:49;;;;;;;1.00;0.80;;;26.10;99.90;;;;;;5047949;28;20202;-71
2021/10/04 12:45:15;;;;;;;0.90;0.70;;;25.70;99.90;;;;;;5048017;28;20217;-73
2021/10/04 12:48:01;;;;;;;3.28;1.73;;;25.60;99.90;;;;;;5056176;28;20200;-71
2021/10/04 12:50:37;;;;;;;1.30;1.00;;;25.30;99.90;;;;;;5049660;28;20187;-71